createdAt,value
2023-05-03T00:00:28.789Z,45.24
2023-05-03T00:02:58.008Z,45.13
2023-05-03T00:05:26.533Z,45.47
2023-05-03T00:07:53.674Z,45.55
2023-05-03T00:10:22.011Z,45.67
2023-05-03T00:12:50.598Z,45.72
2023-05-03T00:15:17.814Z,45.88
2023-05-03T00:17:46.315Z,45.93
2023-05-03T00:20:14.467Z,46.19
2023-05-03T00:22:42.416Z,46.39
2023-05-03T00:25:14.750Z,46.49
2023-05-03T00:27:41.800Z,46.56
2023-05-03T00:30:10.363Z,46.53
2023-05-03T00:32:39.651Z,46.71
2023-05-03T00:35:07.501Z,46.60
2023-05-03T00:37:34.774Z,46.51
2023-05-03T00:40:04.973Z,46.73
2023-05-03T00:42:37.038Z,46.65
2023-05-03T00:45:06.906Z,46.49
2023-05-03T00:47:34.066Z,46.44
2023-05-03T00:50:01.713Z,46.48
2023-05-03T00:52:30.356Z,46.55
2023-05-03T00:54:57.786Z,46.42
2023-05-03T00:57:25.928Z,46.41
2023-05-03T00:59:54.001Z,46.35
2023-05-03T01:02:21.876Z,46.46
2023-05-03T01:04:49.568Z,46.58
2023-05-03T01:07:35.976Z,46.68
2023-05-03T01:10:03.980Z,46.76
2023-05-03T01:12:49.448Z,46.93
2023-05-03T01:15:21.663Z,46.98
2023-05-03T01:17:52.540Z,47.21
2023-05-03T01:20:24.907Z,47.47
2023-05-03T01:23:00.022Z,47.47
2023-05-03T01:25:30.027Z,47.59
2023-05-03T01:27:57.520Z,47.81
2023-05-03T01:30:26.957Z,48.01
2023-05-03T01:33:11.995Z,48.09
2023-05-03T01:35:55.226Z,48.20
2023-05-03T01:38:24.150Z,48.36
2023-05-03T01:40:53.511Z,48.47
2023-05-03T01:43:20.971Z,48.50
2023-05-03T01:45:49.171Z,48.54
2023-05-03T01:48:18.883Z,48.58
2023-05-03T01:50:46.132Z,48.31
2023-05-03T01:53:13.387Z,48.47
2023-05-03T01:55:40.444Z,48.60
2023-05-03T01:58:07.580Z,48.70
2023-05-03T02:00:35.342Z,48.89
2023-05-03T02:03:03.034Z,48.78
2023-05-03T02:05:29.979Z,48.85
2023-05-03T02:07:58.234Z,49.03
2023-05-03T02:10:26.888Z,49.10
2023-05-03T02:12:56.827Z,48.95
2023-05-03T02:15:23.880Z,48.97
2023-05-03T02:17:51.653Z,49.17
2023-05-03T02:20:20.004Z,49.04
2023-05-03T02:22:47.808Z,49.16
2023-05-03T02:25:14.870Z,49.31
2023-05-03T02:27:42.621Z,49.38
2023-05-03T02:30:09.775Z,49.51
2023-05-03T02:32:40.449Z,49.51
2023-05-03T02:35:08.791Z,49.73
2023-05-03T02:37:36.690Z,49.95
2023-05-03T02:40:06.188Z,49.97
2023-05-03T02:42:33.403Z,50.05
2023-05-03T02:45:02.884Z,50.49
2023-05-03T02:47:34.127Z,50.52
2023-05-03T02:50:01.701Z,50.59
2023-05-03T02:52:31.779Z,50.63
2023-05-03T02:54:59.742Z,50.65
2023-05-03T02:57:27.016Z,51.08
2023-05-03T02:59:54.783Z,51.04
2023-05-03T03:02:22.354Z,51.13
2023-05-03T03:04:49.377Z,51.20
2023-05-03T03:07:17.020Z,51.46
2023-05-03T03:09:44.656Z,51.63
2023-05-03T03:12:11.821Z,51.67
2023-05-03T03:14:39.155Z,51.51
2023-05-03T03:17:09.312Z,51.59
2023-05-03T03:19:36.636Z,51.75
2023-05-03T03:22:03.789Z,51.72
2023-05-03T03:24:31.969Z,51.94
2023-05-03T03:26:59.209Z,51.81
2023-05-03T03:29:29.123Z,51.88
2023-05-03T03:31:56.253Z,51.67
2023-05-03T03:34:23.946Z,51.87
2023-05-03T03:36:51.670Z,51.90
2023-05-03T03:39:19.227Z,51.68
2023-05-03T03:41:47.883Z,51.81
2023-05-03T03:44:15.010Z,51.98
2023-05-03T03:46:42.385Z,51.99
2023-05-03T03:49:09.414Z,52.07
2023-05-03T03:51:36.823Z,52.03
2023-05-03T03:54:04.074Z,52.06
2023-05-03T03:56:32.259Z,52.26
2023-05-03T03:59:00.290Z,52.10
2023-05-03T04:01:30.117Z,51.86
2023-05-03T04:03:58.154Z,51.91
2023-05-03T04:06:27.261Z,51.73
2023-05-03T04:08:55.870Z,51.82
2023-05-03T04:11:23.887Z,51.61
2023-05-03T04:14:04.971Z,51.44
2023-05-03T04:16:32.336Z,51.28
2023-05-03T04:19:01.680Z,50.84
2023-05-03T04:21:29.187Z,50.82
2023-05-03T04:23:56.599Z,50.35
2023-05-03T04:26:31.799Z,50.68
2023-05-03T04:29:06.568Z,50.55
2023-05-03T04:31:34.541Z,50.40
2023-05-03T04:34:02.002Z,50.27
2023-05-03T04:36:30.221Z,50.09
2023-05-03T04:38:58.457Z,49.68
2023-05-03T04:41:26.022Z,49.26
2023-05-03T04:43:53.786Z,48.73
2023-05-03T04:46:20.849Z,48.89
2023-05-03T04:48:48.748Z,48.53
2023-05-03T04:51:16.410Z,48.32
2023-05-03T04:53:43.921Z,47.90
2023-05-03T04:56:14.926Z,46.79
2023-05-03T04:58:43.915Z,46.47
2023-05-03T05:01:11.273Z,46.45
2023-05-03T05:03:38.636Z,46.32
2023-05-03T05:06:12.574Z,46.24
2023-05-03T05:08:40.894Z,45.96
2023-05-03T05:11:09.176Z,45.70
2023-05-03T05:13:37.043Z,45.29
2023-05-03T05:16:04.398Z,45.13
2023-05-03T05:18:35.199Z,44.73
2023-05-03T05:21:05.360Z,44.43
2023-05-03T05:23:33.160Z,44.76
2023-05-03T05:26:00.893Z,44.48
2023-05-03T05:28:31.618Z,43.74
2023-05-03T05:30:59.890Z,43.65
2023-05-03T05:33:27.536Z,43.64
2023-05-03T05:35:58.437Z,43.31
2023-05-03T05:38:36.835Z,42.85
2023-05-03T05:41:08.291Z,43.24
2023-05-03T05:43:55.212Z,43.09
2023-05-03T05:46:25.324Z,42.09
2023-05-03T05:48:56.071Z,41.54
2023-05-03T05:51:42.028Z,41.31
2023-05-03T05:54:22.196Z,41.26
2023-05-03T05:56:51.060Z,40.79
2023-05-03T05:59:23.642Z,40.20
2023-05-03T06:01:52.044Z,39.87
2023-05-03T06:04:29.103Z,39.70
2023-05-03T06:06:57.183Z,39.55
2023-05-03T06:09:25.230Z,39.46
2023-05-03T06:12:08.317Z,38.87
2023-05-03T06:14:37.472Z,38.80
2023-05-03T06:17:07.021Z,38.77
2023-05-03T06:19:35.817Z,38.50
2023-05-03T06:22:03.035Z,38.12
2023-05-03T06:24:34.371Z,37.32
2023-05-03T06:27:01.536Z,37.14
2023-05-03T06:29:29.764Z,37.41
2023-05-03T06:32:00.774Z,37.03
2023-05-03T06:34:28.334Z,37.18
2023-05-03T06:36:56.913Z,37.50
2023-05-03T06:39:25.399Z,38.66
2023-05-03T06:41:54.085Z,38.39
2023-05-03T06:44:21.543Z,38.45
2023-05-03T06:46:50.283Z,39.45
2023-05-03T06:49:17.483Z,40.34
2023-05-03T06:51:44.547Z,40.46
2023-05-03T06:54:12.098Z,41.35
2023-05-03T06:56:40.178Z,41.95
2023-05-03T06:59:08.647Z,42.80
2023-05-03T07:01:36.795Z,42.65
2023-05-03T07:04:05.025Z,43.54
2023-05-03T07:06:40.732Z,42.93
2023-05-03T07:09:22.067Z,39.86
2023-05-03T07:11:56.036Z,41.56
2023-05-03T07:14:23.035Z,42.27
2023-05-03T07:16:50.313Z,42.19
2023-05-03T07:19:17.431Z,40.87
2023-05-03T07:21:44.788Z,41.32
2023-05-03T07:24:13.170Z,41.74
2023-05-03T07:26:41.551Z,39.60
2023-05-03T07:29:11.315Z,38.52
2023-05-03T07:31:38.412Z,38.27
2023-05-03T07:34:06.069Z,37.61
2023-05-03T07:36:34.300Z,37.37
2023-05-03T07:39:01.401Z,36.95
2023-05-03T07:41:28.445Z,37.25
2023-05-03T07:43:57.384Z,36.55
2023-05-03T07:46:24.686Z,36.81
2023-05-03T07:48:51.869Z,36.67
2023-05-03T07:51:19.084Z,37.08
2023-05-03T07:53:46.456Z,36.20
2023-05-03T07:56:13.519Z,34.97
2023-05-03T07:58:41.644Z,34.73
2023-05-03T08:01:12.155Z,34.91
2023-05-03T08:03:39.453Z,34.36
2023-05-03T08:06:07.324Z,33.60
2023-05-03T08:08:37.399Z,34.21
2023-05-03T08:11:04.668Z,33.79
2023-05-03T08:13:32.585Z,33.41
2023-05-03T08:15:59.700Z,32.96
2023-05-03T08:18:27.135Z,31.73
2023-05-03T08:20:54.412Z,31.72
2023-05-03T08:23:22.179Z,31.23
2023-05-03T08:25:49.186Z,31.15
2023-05-03T08:28:16.788Z,31.29
2023-05-03T08:30:43.830Z,30.86
2023-05-03T08:33:11.312Z,30.57
2023-05-03T08:35:38.799Z,29.95
2023-05-03T08:38:06.581Z,30.29
2023-05-03T08:40:37.435Z,30.64
2023-05-03T08:43:09.991Z,30.33
2023-05-03T08:45:37.432Z,29.48
2023-05-03T08:48:05.154Z,29.71
2023-05-03T08:50:32.315Z,29.44
2023-05-03T08:52:59.842Z,29.70
2023-05-03T08:58:10.631Z,29.42
2023-05-03T09:00:38.619Z,29.26
2023-05-03T09:03:05.972Z,29.04
2023-05-03T09:05:34.913Z,29.55
2023-05-03T09:08:09.940Z,29.37
2023-05-03T09:10:39.770Z,29.06
2023-05-03T09:13:07.917Z,29.76
2023-05-03T09:15:35.780Z,29.73
2023-05-03T09:18:13.999Z,29.21
2023-05-03T09:20:41.968Z,28.79
2023-05-03T09:23:09.712Z,29.41
2023-05-03T09:25:47.765Z,28.96
2023-05-03T09:28:16.217Z,27.91
2023-05-03T09:30:43.808Z,28.01
2023-05-03T09:33:12.030Z,28.07
2023-05-03T09:35:39.789Z,28.13
2023-05-03T09:38:07.475Z,27.96
2023-05-03T09:40:34.784Z,28.33
2023-05-03T09:43:12.063Z,27.94
2023-05-03T09:45:39.424Z,27.44
2023-05-03T09:48:07.625Z,27.71
2023-05-03T09:50:36.484Z,27.76
2023-05-03T09:53:08.587Z,27.92
2023-05-03T09:55:37.188Z,27.02
2023-05-03T09:58:07.425Z,27.25
2023-05-03T10:00:40.759Z,27.11
2023-05-03T10:03:10.015Z,27.09
2023-05-03T10:05:44.355Z,27.72
2023-05-03T10:08:11.786Z,27.87
2023-05-03T10:10:39.101Z,28.42
2023-05-03T10:13:06.900Z,28.01
2023-05-03T10:15:34.469Z,28.24
2023-05-03T10:18:06.792Z,27.10
2023-05-03T10:20:38.297Z,27.14
2023-05-03T10:23:05.777Z,26.42
2023-05-03T10:25:34.630Z,26.68
2023-05-03T10:28:08.990Z,26.71
2023-05-03T10:30:40.074Z,26.54
2023-05-03T10:33:10.196Z,26.30
2023-05-03T10:35:39.894Z,26.82
2023-05-03T10:38:16.099Z,26.78
2023-05-03T10:40:44.498Z,26.79
2023-05-03T10:43:32.831Z,26.14
2023-05-03T10:46:03.754Z,26.49
2023-05-03T10:48:31.614Z,26.21
2023-05-03T10:51:18.990Z,26.11
2023-05-03T10:53:46.297Z,25.94
2023-05-03T10:56:15.491Z,26.30
2023-05-03T10:58:47.905Z,26.28
2023-05-03T11:01:19.350Z,26.18
2023-05-03T11:04:01.180Z,25.78
2023-05-03T11:06:38.440Z,25.37
2023-05-03T11:09:07.092Z,25.83
2023-05-03T11:11:39.612Z,25.68
2023-05-03T11:14:08.947Z,25.63
2023-05-03T11:16:36.965Z,25.48
2023-05-03T11:19:04.345Z,25.94
2023-05-03T11:21:32.473Z,26.03
2023-05-03T11:23:59.769Z,26.33
2023-05-03T11:26:27.732Z,26.04
2023-05-03T11:28:55.326Z,25.66
2023-05-03T11:31:23.074Z,25.42
2023-05-03T11:33:52.952Z,25.78
2023-05-03T11:36:20.258Z,25.67
2023-05-03T11:38:47.586Z,25.26
2023-05-03T11:41:17.071Z,25.61
2023-05-03T11:43:55.124Z,25.89
2023-05-03T11:46:29.040Z,25.62
2023-05-03T11:48:57.282Z,25.66
2023-05-03T11:51:25.072Z,25.73
2023-05-03T11:53:52.609Z,25.67
2023-05-03T11:56:21.225Z,25.01
2023-05-03T11:58:57.649Z,25.26
2023-05-03T12:01:32.104Z,25.64
2023-05-03T12:04:02.578Z,25.30
2023-05-03T12:06:32.387Z,25.70
2023-05-03T12:09:04.716Z,26.07
2023-05-03T12:11:44.552Z,25.65
2023-05-03T12:14:12.375Z,25.48
2023-05-03T12:16:51.821Z,25.37
2023-05-03T12:19:32.124Z,25.76
2023-05-03T12:22:22.550Z,24.79
2023-05-03T12:24:49.415Z,24.58
2023-05-03T12:27:19.276Z,25.21
2023-05-03T12:29:47.562Z,24.97
2023-05-03T12:32:16.437Z,24.49
2023-05-03T12:34:46.804Z,24.73
2023-05-03T12:37:17.178Z,25.01
2023-05-03T12:39:52.279Z,24.79
2023-05-03T12:42:33.812Z,24.71
2023-05-03T12:45:04.753Z,24.77
2023-05-03T12:47:35.955Z,24.04
2023-05-03T12:50:06.317Z,23.90
2023-05-03T12:52:37.725Z,24.38
2023-05-03T12:55:11.338Z,24.13
2023-05-03T12:57:39.392Z,24.58
2023-05-03T13:00:14.511Z,25.10
2023-05-03T13:07:55.757Z,24.83
2023-05-03T13:10:24.931Z,24.65
2023-05-03T13:12:54.109Z,25.27
2023-05-03T13:15:21.253Z,24.76
2023-05-03T13:17:50.854Z,24.93
2023-05-03T13:20:20.576Z,25.67
2023-05-03T13:22:49.127Z,26.15
2023-05-03T13:25:16.403Z,25.57
2023-05-03T13:27:44.376Z,25.40
2023-05-03T13:30:12.240Z,25.28
2023-05-03T13:32:39.444Z,25.10
2023-05-03T13:35:09.788Z,25.11
2023-05-03T13:37:36.971Z,25.41
2023-05-03T13:40:05.638Z,25.82
2023-05-03T13:42:33.521Z,25.00
2023-05-03T13:45:01.498Z,25.10
2023-05-03T13:47:32.997Z,25.53
2023-05-03T13:50:08.370Z,25.75
2023-05-03T13:52:35.640Z,25.95
2023-05-03T13:55:04.861Z,25.97
2023-05-03T13:57:31.813Z,26.11
2023-05-03T14:00:00.469Z,25.65
2023-05-03T14:02:27.847Z,26.17
2023-05-03T14:04:54.978Z,26.73
2023-05-03T14:07:22.434Z,26.30
2023-05-03T14:09:49.583Z,26.39
2023-05-03T14:12:17.689Z,27.25
2023-05-03T14:14:44.885Z,27.25
2023-05-03T14:17:12.270Z,27.21
2023-05-03T14:19:40.135Z,27.73
2023-05-03T14:22:07.385Z,27.34
2023-05-03T14:24:34.447Z,27.37
2023-05-03T14:27:01.719Z,27.13
2023-05-03T14:29:28.937Z,27.22
2023-05-03T14:31:57.520Z,26.77
2023-05-03T14:34:24.679Z,26.99
2023-05-03T14:36:52.942Z,27.05
2023-05-03T14:39:20.324Z,27.11
2023-05-03T14:41:50.055Z,27.17
2023-05-03T14:44:17.684Z,26.90
2023-05-03T14:46:44.770Z,27.52
2023-05-03T14:49:11.879Z,27.71
2023-05-03T14:51:39.131Z,27.72
2023-05-03T14:54:06.608Z,27.82
2023-05-03T14:56:33.681Z,27.56
2023-05-03T14:59:01.298Z,27.77
2023-05-03T15:01:28.445Z,28.00
2023-05-03T15:03:55.600Z,28.76
2023-05-03T15:06:27.051Z,28.73
2023-05-03T15:08:55.339Z,29.10
2023-05-03T15:11:22.389Z,29.32
2023-05-03T15:13:51.985Z,29.64
2023-05-03T15:16:19.285Z,30.08
2023-05-03T15:18:48.798Z,30.25
2023-05-03T15:21:18.328Z,30.59
2023-05-03T15:23:47.472Z,30.94
2023-05-03T15:26:15.360Z,31.07
2023-05-03T15:28:42.368Z,31.30
2023-05-03T15:31:09.445Z,31.61
2023-05-03T15:33:46.390Z,32.01
2023-05-03T15:36:14.366Z,32.30
2023-05-03T15:38:44.704Z,32.67
2023-05-03T15:41:12.663Z,33.00
2023-05-03T15:43:40.028Z,33.12
2023-05-03T15:46:07.240Z,33.13
2023-05-03T15:48:34.411Z,33.20
2023-05-03T15:51:01.874Z,33.44
2023-05-03T15:53:28.914Z,33.64
2023-05-03T15:55:59.139Z,33.71
2023-05-03T15:58:29.618Z,33.79
2023-05-03T16:00:59.455Z,33.65
2023-05-03T16:03:30.223Z,33.97
2023-05-03T16:05:57.674Z,33.90
2023-05-03T16:08:25.016Z,34.24
2023-05-03T16:10:52.418Z,34.42
2023-05-03T16:13:19.624Z,34.95
2023-05-03T16:15:47.633Z,35.50
2023-05-03T16:18:18.397Z,37.62
2023-05-03T16:20:51.419Z,38.90
2023-05-03T16:23:18.636Z,39.76
2023-05-03T16:25:48.906Z,40.93
2023-05-03T16:28:16.476Z,41.28
2023-05-03T16:30:45.288Z,41.81
2023-05-03T16:33:13.279Z,42.18
2023-05-03T16:35:40.279Z,42.65
2023-05-03T16:38:09.621Z,43.06
2023-05-03T16:40:40.290Z,43.06
2023-05-03T16:43:11.144Z,43.77
2023-05-03T16:45:38.430Z,43.29
2023-05-03T16:48:08.169Z,43.62
2023-05-03T16:50:37.941Z,43.62
2023-05-03T16:53:05.175Z,43.97
2023-05-03T16:55:32.324Z,46.81
2023-05-03T16:58:00.269Z,49.78
2023-05-03T17:00:27.652Z,51.58
2023-05-03T17:02:55.126Z,53.40
2023-05-03T17:05:23.064Z,54.85
2023-05-03T17:07:50.128Z,56.22
2023-05-03T17:10:17.384Z,57.52
2023-05-03T17:12:47.758Z,58.50
2023-05-03T17:15:15.067Z,59.90
2023-05-03T17:17:42.352Z,61.56
2023-05-03T17:20:11.269Z,63.13
2023-05-03T17:22:39.453Z,64.19
2023-05-03T17:25:07.955Z,64.71
2023-05-03T17:27:35.005Z,65.40
2023-05-03T17:30:02.909Z,65.51
2023-05-03T17:32:30.953Z,67.02
2023-05-03T17:34:58.613Z,67.79
2023-05-03T17:37:28.829Z,68.21
2023-05-03T17:39:56.309Z,68.32
2023-05-03T17:42:23.540Z,68.24
2023-05-03T17:44:55.097Z,68.24
2023-05-03T17:47:23.184Z,68.32
2023-05-03T17:49:50.935Z,68.19
2023-05-03T17:52:18.159Z,67.62
2023-05-03T17:54:46.470Z,67.65
2023-05-03T17:57:13.564Z,67.83
2023-05-03T17:59:40.920Z,68.53
2023-05-03T18:02:08.252Z,69.09
2023-05-03T18:04:35.881Z,69.45
2023-05-03T18:07:04.463Z,69.83
2023-05-03T18:09:33.260Z,70.03
2023-05-03T18:12:01.738Z,70.45
2023-05-03T18:14:28.720Z,70.89
2023-05-03T18:16:56.445Z,71.50
2023-05-03T18:19:24.319Z,71.58
2023-05-03T18:21:51.774Z,71.57
2023-05-03T18:24:19.225Z,71.53
2023-05-03T18:26:47.608Z,72.00
2023-05-03T18:29:14.971Z,72.33
2023-05-03T18:31:42.157Z,73.14
2023-05-03T18:34:09.369Z,73.48
2023-05-03T18:36:36.839Z,73.37
2023-05-03T18:39:09.124Z,73.04
2023-05-03T18:41:38.297Z,72.81
2023-05-03T18:44:05.545Z,72.79
2023-05-03T18:46:32.734Z,72.50
2023-05-03T18:49:01.109Z,72.23
2023-05-03T18:51:30.070Z,72.54
2023-05-03T18:53:57.324Z,72.70
2023-05-03T18:56:24.359Z,73.06
2023-05-03T18:58:54.049Z,73.17
2023-05-03T19:01:22.688Z,73.68
2023-05-03T19:03:52.583Z,73.85
2023-05-03T19:06:19.840Z,74.08
2023-05-03T19:08:48.211Z,74.10
2023-05-03T19:11:16.290Z,74.69
2023-05-03T19:13:47.410Z,74.98
2023-05-03T19:16:15.890Z,74.90
2023-05-03T19:18:44.804Z,74.58
2023-05-03T19:21:17.985Z,73.81
2023-05-03T19:23:44.997Z,73.13
2023-05-03T19:26:12.097Z,72.74
2023-05-03T19:28:39.301Z,72.48
2023-05-03T19:31:06.623Z,72.19
2023-05-03T19:33:34.058Z,71.81
2023-05-03T19:36:06.922Z,70.91
2023-05-03T19:38:37.179Z,70.79
2023-05-03T19:41:12.444Z,70.62
2023-05-03T19:43:40.491Z,70.58
2023-05-03T19:46:07.933Z,70.82
2023-05-03T19:48:35.289Z,71.13
2023-05-03T19:51:05.433Z,71.24
2023-05-03T19:53:34.138Z,71.58
2023-05-03T19:56:03.112Z,71.97
2023-05-03T19:58:31.939Z,72.44
2023-05-03T20:00:59.133Z,72.67
2023-05-03T20:03:27.653Z,73.22
2023-05-03T20:05:54.972Z,73.49
2023-05-03T20:08:22.845Z,73.53
2023-05-03T20:10:50.600Z,73.54
2023-05-03T20:13:19.880Z,73.91
2023-05-03T20:15:48.015Z,74.36
2023-05-03T20:18:15.027Z,74.61
2023-05-03T20:20:42.067Z,75.26
2023-05-03T20:23:11.195Z,75.96
2023-05-03T20:25:38.829Z,76.41
2023-05-03T20:28:05.771Z,76.58
2023-05-03T20:30:33.146Z,76.95
2023-05-03T20:33:00.694Z,77.43
2023-05-03T20:35:27.831Z,77.95
2023-05-03T20:37:54.992Z,78.40
2023-05-03T20:40:22.242Z,78.98
2023-05-03T20:42:49.801Z,79.32
2023-05-03T20:45:17.277Z,79.66
2023-05-03T20:47:47.147Z,80.02
2023-05-03T20:50:14.240Z,80.29
2023-05-03T20:52:41.369Z,80.65
2023-05-03T20:55:09.105Z,80.90
2023-05-03T20:57:40.849Z,81.19
2023-05-03T21:00:16.061Z,81.76
2023-05-03T21:02:43.468Z,82.59
2023-05-03T21:05:11.569Z,83.20
2023-05-03T21:07:39.222Z,83.37
2023-05-03T21:10:07.769Z,83.15
2023-05-03T21:12:35.143Z,83.14
2023-05-03T21:17:03.181Z,83.62
2023-05-03T21:19:30.603Z,83.63
2023-05-03T21:21:58.062Z,83.86
2023-05-03T21:24:26.031Z,83.64
2023-05-03T21:26:55.636Z,83.71
2023-05-03T21:29:22.758Z,83.94
2023-05-03T21:31:49.786Z,84.06
2023-05-03T21:34:16.749Z,84.35
2023-05-03T21:36:43.815Z,84.32
2023-05-03T21:39:11.298Z,84.27
2023-05-03T21:41:39.281Z,84.20
2023-05-03T21:44:06.254Z,84.38
2023-05-03T21:46:33.768Z,84.60
2023-05-03T21:49:00.981Z,84.84
2023-05-03T21:51:31.375Z,85.03
2023-05-03T21:53:58.385Z,85.14
2023-05-03T21:56:25.584Z,85.40
2023-05-03T21:58:52.731Z,85.59
2023-05-03T22:01:20.853Z,85.71
2023-05-03T22:03:50.263Z,85.84
2023-05-03T22:06:17.586Z,85.95
2023-05-03T22:08:44.836Z,86.01
2023-05-03T22:11:12.723Z,86.06
2023-05-03T22:13:54.592Z,86.06
2023-05-03T22:16:29.614Z,86.13
2023-05-03T22:18:58.736Z,86.25
2023-05-03T22:21:25.828Z,86.38
2023-05-03T22:23:56.259Z,86.54
2023-05-03T22:26:24.457Z,86.69
2023-05-03T22:28:52.194Z,86.58
2023-05-03T22:31:21.781Z,86.62
2023-05-03T22:33:50.377Z,86.80
2023-05-03T22:36:17.537Z,86.85
2023-05-03T22:39:01.035Z,86.90
2023-05-03T22:41:28.242Z,86.60
2023-05-03T22:43:56.578Z,86.27
2023-05-03T22:46:29.410Z,86.43
2023-05-03T22:49:09.433Z,86.67
2023-05-03T22:51:37.490Z,86.41
2023-05-03T22:54:05.319Z,86.53
2023-05-03T22:56:32.589Z,86.34
2023-05-03T22:58:59.623Z,86.04
2023-05-03T23:01:27.069Z,85.60
2023-05-03T23:03:58.359Z,85.27
2023-05-03T23:06:27.640Z,84.92
2023-05-03T23:08:56.867Z,84.91
2023-05-03T23:11:24.931Z,84.83
2023-05-03T23:13:51.906Z,84.83
2023-05-03T23:16:20.559Z,84.91
2023-05-03T23:18:48.157Z,84.80
2023-05-03T23:21:15.251Z,84.70
2023-05-03T23:23:42.574Z,84.58
2023-05-03T23:26:09.920Z,84.30
2023-05-03T23:28:37.362Z,84.44
2023-05-03T23:31:06.247Z,84.40
2023-05-03T23:33:33.848Z,84.36
2023-05-03T23:36:04.604Z,84.18
2023-05-03T23:38:32.703Z,84.08
2023-05-03T23:40:59.742Z,84.10
2023-05-03T23:43:26.767Z,84.38
2023-05-03T23:45:58.065Z,84.73
2023-05-03T23:48:28.243Z,84.98
2023-05-03T23:50:55.267Z,84.79
2023-05-03T23:53:22.410Z,84.98
2023-05-03T23:55:49.444Z,84.94
2023-05-03T23:58:16.603Z,85.15
